createdAt,value
2023-03-30T00:00:19.019Z,67.11
2023-03-30T00:05:45.723Z,66.59
2023-03-30T00:10:55.133Z,67.41
2023-03-30T00:16:01.516Z,67.64
2023-03-30T00:21:09.890Z,68.21
2023-03-30T00:26:18.763Z,67.99
2023-03-30T00:31:25.064Z,67.93
2023-03-30T00:36:37.358Z,68.56
2023-03-30T00:41:45.108Z,68.94
2023-03-30T00:46:51.620Z,70.06
2023-03-30T00:51:58.020Z,69.72
2023-03-30T00:57:07.850Z,69.54
2023-03-30T01:02:14.796Z,69.10
2023-03-30T01:07:24.598Z,69.16
2023-03-30T01:12:32.404Z,68.92
2023-03-30T01:18:01.007Z,68.85
2023-03-30T01:23:48.988Z,68.94
2023-03-30T01:29:04.727Z,68.74
2023-03-30T01:34:58.136Z,68.67
2023-03-30T01:40:13.511Z,68.88
2023-03-30T01:45:30.183Z,69.14
2023-03-30T01:50:42.117Z,69.30
2023-03-30T01:55:57.279Z,70.21
2023-03-30T02:01:08.228Z,70.95
2023-03-30T02:06:23.733Z,70.58
2023-03-30T02:11:35.583Z,69.81
2023-03-30T02:16:49.311Z,70.68
2023-03-30T02:21:56.571Z,69.77
2023-03-30T02:27:06.234Z,69.86
2023-03-30T02:32:18.494Z,69.69
2023-03-30T02:37:45.336Z,70.99
2023-03-30T02:43:09.121Z,72.72
2023-03-30T02:48:31.167Z,73.45
2023-03-30T02:53:46.802Z,74.11
2023-03-30T02:59:14.584Z,74.10
2023-03-30T03:04:24.002Z,73.23
2023-03-30T03:09:49.666Z,73.30
2023-03-30T03:14:58.157Z,73.15
2023-03-30T03:20:06.439Z,73.69
2023-03-30T03:25:13.247Z,73.38
2023-03-30T03:30:34.354Z,72.56
2023-03-30T03:36:00.560Z,73.06
2023-03-30T03:41:09.820Z,73.68
2023-03-30T03:46:19.320Z,73.64
2023-03-30T03:51:25.850Z,73.45
2023-03-30T03:56:32.618Z,73.81
2023-03-30T04:01:40.774Z,73.96
2023-03-30T04:06:48.115Z,73.62
2023-03-30T04:11:54.424Z,74.06
2023-03-30T04:17:18.424Z,74.17
2023-03-30T04:22:50.637Z,73.96
2023-03-30T04:28:11.994Z,74.43
2023-03-30T04:33:47.415Z,74.00
2023-03-30T04:39:18.461Z,74.71
2023-03-30T04:44:44.514Z,75.17
2023-03-30T04:50:02.987Z,75.52
2023-03-30T04:55:28.319Z,75.40
2023-03-30T05:00:58.665Z,75.31
2023-03-30T05:06:35.981Z,74.89
2023-03-30T05:12:15.179Z,75.07
2023-03-30T05:17:38.875Z,74.97
2023-03-30T05:23:09.041Z,74.37
2023-03-30T05:28:34.016Z,75.83
2023-03-30T05:34:07.024Z,76.52
2023-03-30T05:39:33.620Z,76.91
2023-03-30T05:45:11.514Z,76.76
2023-03-30T05:50:24.700Z,75.61
2023-03-30T05:55:39.724Z,74.83
2023-03-30T06:01:06.173Z,74.69
2023-03-30T06:06:18.330Z,74.75
2023-03-30T06:11:29.577Z,74.46
2023-03-30T06:16:46.641Z,73.92
2023-03-30T06:21:54.855Z,73.40
2023-03-30T06:27:08.698Z,73.12
2023-03-30T06:32:15.770Z,72.81
2023-03-30T06:37:45.330Z,72.85
2023-03-30T06:42:53.567Z,72.59
2023-03-30T06:48:07.495Z,72.63
2023-03-30T06:53:18.193Z,72.49
2023-03-30T06:58:30.116Z,72.38
2023-03-30T07:03:36.532Z,72.19
2023-03-30T07:08:58.862Z,72.32
2023-03-30T07:14:07.817Z,72.08
2023-03-30T07:19:14.942Z,72.38
2023-03-30T07:24:21.583Z,72.15
2023-03-30T07:29:29.690Z,71.81
2023-03-30T07:34:36.690Z,72.22
2023-03-30T07:39:43.620Z,72.08
2023-03-30T07:44:52.665Z,72.19
2023-03-30T07:50:02.455Z,72.16
2023-03-30T07:55:11.369Z,72.48
2023-03-30T08:00:28.852Z,72.15
2023-03-30T08:06:01.012Z,72.05
2023-03-30T08:11:11.624Z,71.98
2023-03-30T08:16:22.262Z,72.48
2023-03-30T08:21:28.808Z,71.87
2023-03-30T08:26:36.623Z,71.87
2023-03-30T08:31:44.295Z,71.70
2023-03-30T08:36:50.562Z,71.35
2023-03-30T08:42:23.848Z,71.72
2023-03-30T08:47:54.616Z,71.50
2023-03-30T08:58:18.294Z,71.50
2023-03-30T09:03:38.640Z,70.74
2023-03-30T09:08:45.622Z,70.74
2023-03-30T09:13:53.365Z,70.47
2023-03-30T09:19:05.573Z,70.29
2023-03-30T09:24:20.601Z,70.28
2023-03-30T09:29:31.774Z,70.39
2023-03-30T09:34:47.640Z,70.20
2023-03-30T09:39:54.221Z,69.91
2023-03-30T09:45:07.584Z,69.82
2023-03-30T09:50:23.549Z,69.53
2023-03-30T09:55:33.263Z,69.11
2023-03-30T10:00:40.104Z,68.67
2023-03-30T10:06:02.360Z,68.01
2023-03-30T10:11:09.468Z,67.72
2023-03-30T10:16:27.948Z,66.90
2023-03-30T10:21:41.485Z,66.77
2023-03-30T10:26:49.082Z,66.17
2023-03-30T10:32:03.758Z,65.78
2023-03-30T10:37:17.405Z,65.99
2023-03-30T10:42:28.248Z,65.66
2023-03-30T10:47:54.668Z,64.99
2023-03-30T10:53:21.632Z,64.72
2023-03-30T10:58:54.600Z,65.46
2023-03-30T11:04:20.470Z,65.51
2023-03-30T11:09:34.191Z,65.73
2023-03-30T11:14:49.056Z,65.35
2023-03-30T11:20:00.606Z,64.84
2023-03-30T11:25:23.763Z,63.91
2023-03-30T11:30:33.396Z,64.04
2023-03-30T11:35:47.563Z,63.95
2023-03-30T11:41:00.700Z,63.87
2023-03-30T11:46:16.282Z,63.65
2023-03-30T11:51:53.008Z,62.98
2023-03-30T11:57:11.499Z,62.75
2023-03-30T12:02:33.344Z,62.60
2023-03-30T12:07:50.261Z,63.33
2023-03-30T12:12:59.469Z,63.62
2023-03-30T12:18:17.418Z,63.13
2023-03-30T12:23:38.165Z,63.53
2023-03-30T12:29:40.582Z,64.22
2023-03-30T12:34:27.877Z,63.15
2023-03-30T12:39:45.363Z,63.51
2023-03-30T12:45:26.553Z,63.46
2023-03-30T12:50:45.630Z,63.22
2023-03-30T12:56:01.927Z,63.63
2023-03-30T13:01:38.901Z,64.15
2023-03-30T13:06:54.107Z,64.97
2023-03-30T13:12:44.457Z,65.21
2023-03-30T13:18:02.321Z,65.96
2023-03-30T13:23:34.135Z,66.29
2023-03-30T13:29:06.396Z,66.57
2023-03-30T13:34:33.055Z,66.24
2023-03-30T13:39:47.548Z,65.90
2023-03-30T13:45:06.397Z,66.38
2023-03-30T13:50:26.115Z,66.67
2023-03-30T13:55:39.306Z,67.03
2023-03-30T14:00:51.684Z,67.09
2023-03-30T14:06:05.879Z,67.27
2023-03-30T14:11:20.002Z,66.96
2023-03-30T14:16:29.122Z,67.48
2023-03-30T14:21:40.376Z,67.84
2023-03-30T14:26:50.690Z,68.04
2023-03-30T14:32:07.297Z,68.08
2023-03-30T14:37:20.550Z,68.98
2023-03-30T14:42:34.095Z,70.31
2023-03-30T14:47:41.075Z,71.13
2023-03-30T14:52:50.806Z,71.91
2023-03-30T14:57:57.659Z,72.12
2023-03-30T15:03:06.161Z,71.73
2023-03-30T15:08:23.190Z,71.69
2023-03-30T15:13:37.727Z,72.36
2023-03-30T15:18:44.582Z,73.24
2023-03-30T15:23:53.551Z,73.29
2023-03-30T15:29:01.987Z,73.58
2023-03-30T15:34:17.103Z,74.46
2023-03-30T15:39:34.036Z,75.54
2023-03-30T15:44:42.339Z,75.56
2023-03-30T15:49:52.892Z,75.56
2023-03-30T15:55:08.594Z,74.81
2023-03-30T16:00:20.750Z,75.41
2023-03-30T16:05:29.346Z,75.80
2023-03-30T16:10:38.899Z,75.92
2023-03-30T16:15:45.682Z,76.01
2023-03-30T16:20:52.616Z,75.28
2023-03-30T16:26:02.234Z,75.25
2023-03-30T16:31:16.845Z,75.39
2023-03-30T16:36:26.060Z,75.29
2023-03-30T16:41:34.798Z,75.25
2023-03-30T16:46:42.614Z,75.48
2023-03-30T16:51:50.774Z,75.21
2023-03-30T16:56:59.018Z,75.46
2023-03-30T17:02:08.347Z,75.19
2023-03-30T17:07:19.730Z,75.63
2023-03-30T17:12:28.457Z,76.19
2023-03-30T17:17:37.381Z,75.63
2023-03-30T17:22:45.082Z,75.72
2023-03-30T17:27:56.364Z,75.81
2023-03-30T17:33:04.757Z,76.19
2023-03-30T17:38:15.326Z,76.48
2023-03-30T17:43:25.728Z,76.98
2023-03-30T17:48:34.095Z,77.80
2023-03-30T17:53:44.871Z,78.08
2023-03-30T17:58:55.189Z,79.54
2023-03-30T18:04:04.820Z,80.65
2023-03-30T18:09:18.862Z,80.59
2023-03-30T18:14:35.487Z,82.57
2023-03-30T18:19:44.896Z,83.02
2023-03-30T18:24:57.433Z,83.33
2023-03-30T18:30:20.372Z,84.46
2023-03-30T18:35:33.438Z,86.71
2023-03-30T18:40:46.349Z,87.78
2023-03-30T18:46:02.261Z,89.30
2023-03-30T18:51:14.926Z,89.19
2023-03-30T18:56:25.181Z,88.66
2023-03-30T19:01:39.494Z,90.05
2023-03-30T19:06:49.747Z,90.30
2023-03-30T19:12:00.349Z,90.54
2023-03-30T19:17:12.288Z,90.44
2023-03-30T19:22:22.537Z,90.60
2023-03-30T19:27:32.733Z,91.49
2023-03-30T19:32:44.274Z,91.80
2023-03-30T19:37:56.739Z,91.86
2023-03-30T19:43:05.438Z,92.08
2023-03-30T19:48:22.047Z,92.20
2023-03-30T19:53:32.130Z,92.70
2023-03-30T19:58:43.972Z,92.78
2023-03-30T20:03:57.632Z,93.54
2023-03-30T20:09:05.612Z,93.59
2023-03-30T20:14:13.725Z,94.34
2023-03-30T20:19:29.324Z,94.88
2023-03-30T20:24:59.260Z,95.53
2023-03-30T20:30:09.461Z,94.93
2023-03-30T20:35:20.352Z,95.48
2023-03-30T20:40:28.085Z,96.17
2023-03-30T20:45:46.836Z,96.73
2023-03-30T20:50:56.568Z,97.61
2023-03-30T20:56:06.035Z,97.79
2023-03-30T21:01:18.939Z,97.74
2023-03-30T21:06:29.138Z,98.16
2023-03-30T21:11:39.354Z,98.20
2023-03-30T21:16:48.077Z,98.34
2023-03-30T21:21:56.160Z,98.49
2023-03-30T21:27:02.569Z,98.69
2023-03-30T21:32:09.268Z,98.91
2023-03-30T21:37:18.182Z,99.35
2023-03-30T21:42:25.232Z,99.33
2023-03-30T21:47:50.068Z,99.13
2023-03-30T21:53:01.135Z,99.18
2023-03-30T21:58:07.604Z,98.61
2023-03-30T22:03:14.328Z,98.45
2023-03-30T22:08:22.228Z,98.74
2023-03-30T22:13:29.579Z,98.18
2023-03-30T22:18:37.603Z,98.31
2023-03-30T22:23:45.524Z,98.09
2023-03-30T22:28:51.941Z,97.98
2023-03-30T22:33:58.642Z,97.87
2023-03-30T22:39:10.936Z,97.37
2023-03-30T22:44:18.507Z,97.20
2023-03-30T22:49:25.679Z,96.93
2023-03-30T22:54:33.930Z,95.88
2023-03-30T22:59:40.269Z,95.45
2023-03-30T23:04:49.514Z,95.50
2023-03-30T23:09:58.858Z,94.90
2023-03-30T23:15:05.713Z,94.77
2023-03-30T23:20:13.410Z,94.62
2023-03-30T23:25:21.505Z,94.28
2023-03-30T23:30:28.060Z,93.71
2023-03-30T23:35:34.618Z,94.01
2023-03-30T23:40:42.606Z,94.00
2023-03-30T23:45:49.319Z,93.93
2023-03-30T23:50:55.915Z,94.12
2023-03-30T23:56:06.642Z,94.46
